Time,TemperatureF,DewpointF,PressureIn,WindDirection,WindDirectionDegrees,WindSpeedMPH,WindSpeedGustMPH,Humidity,HourlyPrecipIn,Conditions,Clouds,dailyrainin,SoftwareType,DateUTC
2013-01-22 00:01:00,23.2,15.8,29.77,North,0,0.0,2.0,73,0.00,,,0.00,meteohub,2013-01-22 05:01:00,
2013-01-22 00:02:00,23.2,15.8,29.77,North,0,0.0,2.0,73,0.00,,,0.00,meteohub,2013-01-22 05:02:00,
2013-01-22 00:04:00,23.2,15.8,29.76,North,0,1.0,2.0,73,0.00,,,0.00,meteohub,2013-01-22 05:04:00,
2013-01-22 00:10:00,23.4,16.0,29.76,South,180,0.0,2.0,73,0.00,,,0.00,meteohub,2013-01-22 05:10:00,
2013-01-22 00:15:00,23.4,15.6,29.75,NE,45,1.0,2.0,72,0.00,,,0.00,meteohub,2013-01-22 05:15:00,
2013-01-22 00:20:00,23.4,15.6,29.74,West,270,1.0,2.0,72,0.00,,,0.00,meteohub,2013-01-22 05:20:00,
2013-01-22 00:25:00,23.4,15.6,29.73,East,90,2.0,2.0,72,0.00,,,0.00,meteohub,2013-01-22 05:25:00,
2013-01-22 00:30:00,23.2,15.4,29.73,East,90,2.0,2.0,72,0.00,,,0.00,meteohub,2013-01-22 05:30:00,
2013-01-22 00:35:00,23.2,15.4,29.73,East,90,0.0,2.0,72,0.00,,,0.00,meteohub,2013-01-22 05:35:00,
2013-01-22 00:40:00,23.2,15.4,29.73,NE,45,0.0,2.0,72,0.00,,,0.00,meteohub,2013-01-22 05:40:00,
2013-01-22 00:45:00,23.2,15.4,29.73,SE,135,0.0,2.0,72,0.00,,,0.00,meteohub,2013-01-22 05:45:00,
2013-01-22 00:50:00,23.2,15.3,29.74,SE,135,0.0,2.0,71,0.00,,,0.00,meteohub,2013-01-22 05:50:00,
2013-01-22 00:55:00,23.2,15.3,29.73,East,90,1.0,2.0,71,0.00,,,0.00,meteohub,2013-01-22 05:55:00,
2013-01-22 01:00:00,23.2,15.3,29.72,North,0,0.0,2.0,71,0.00,,,0.00,meteohub,2013-01-22 06:00:00,
2013-01-22 01:06:00,23.2,15.3,29.73,North,0,1.0,2.0,71,0.00,,,0.00,meteohub,2013-01-22 06:06:00,
2013-01-22 01:11:00,23.2,15.3,29.74,North,0,0.0,2.0,71,0.00,,,0.00,meteohub,2013-01-22 06:11:00,
2013-01-22 01:16:00,23.4,15.4,29.74,West,270,1.0,2.0,71,0.00,,,0.00,meteohub,2013-01-22 06:16:00,
2013-01-22 01:21:00,23.4,15.4,29.75,West,270,0.0,2.0,71,0.00,,,0.00,meteohub,2013-01-22 06:21:00,
2013-01-22 01:26:00,23.5,15.4,29.75,SE,135,0.0,2.0,71,0.00,,,0.00,meteohub,2013-01-22 06:26:00,
2013-01-22 01:31:00,23.5,15.4,29.74,SE,135,0.0,2.0,71,0.00,,,0.00,meteohub,2013-01-22 06:31:00,
2013-01-22 01:36:00,23.5,15.4,29.74,SE,135,0.0,0.0,71,0.00,,,0.00,meteohub,2013-01-22 06:36:00,
2013-01-22 01:41:00,23.5,15.4,29.75,SE,135,0.0,0.0,71,0.00,,,0.00,meteohub,2013-01-22 06:41:00,
2013-01-22 01:46:00,23.5,15.4,29.75,NE,45,0.0,0.0,71,0.00,,,0.00,meteohub,2013-01-22 06:46:00,
2013-01-22 01:51:00,23.5,15.4,29.74,NE,45,0.0,0.0,71,0.00,,,0.00,meteohub,2013-01-22 06:51:00,
2013-01-22 01:57:00,23.5,15.4,29.74,NE,45,0.0,0.0,71,0.00,,,0.00,meteohub,2013-01-22 06:57:00,
2013-01-22 02:02:00,23.5,15.4,29.75,NE,45,0.0,0.0,71,0.00,,,0.00,meteohub,2013-01-22 07:02:00,
2013-01-22 02:07:00,23.5,15.4,29.75,NW,315,0.0,0.0,71,0.00,,,0.00,meteohub,2013-01-22 07:07:00,
2013-01-22 02:12:00,23.5,15.4,29.75,NW,315,0.0,1.0,71,0.00,,,0.00,meteohub,2013-01-22 07:12:00,
2013-01-22 02:17:00,23.7,15.6,29.75,West,270,0.0,1.0,71,0.00,,,0.00,meteohub,2013-01-22 07:17:00,
2013-01-22 02:22:00,23.7,15.6,29.75,NW,315,0.0,1.0,71,0.00,,,0.00,meteohub,2013-01-22 07:22:00,
2013-01-22 02:27:00,23.7,15.6,29.75,SE,135,0.0,1.0,71,0.00,,,0.00,meteohub,2013-01-22 07:27:00,
2013-01-22 02:32:00,23.5,15.4,29.75,North,0,0.0,1.0,71,0.00,,,0.00,meteohub,2013-01-22 07:32:00,
2013-01-22 02:38:00,23.5,15.4,29.75,North,0,0.0,1.0,71,0.00,,,0.00,meteohub,2013-01-22 07:38:00,
2013-01-22 02:43:00,23.5,15.4,29.74,NW,315,0.0,2.0,71,0.00,,,0.00,meteohub,2013-01-22 07:43:00,
2013-01-22 02:48:00,23.5,15.4,29.74,NW,315,1.0,2.0,71,0.00,,,0.00,meteohub,2013-01-22 07:48:00,
2013-01-22 02:53:00,23.4,15.4,29.74,North,0,1.0,2.0,71,0.00,,,0.00,meteohub,2013-01-22 07:53:00,
2013-01-22 02:58:00,23.2,14.9,29.73,West,270,0.0,1.0,70,0.00,,,0.00,meteohub,2013-01-22 07:58:00,
2013-01-22 03:03:00,22.6,14.7,29.74,NW,315,0.0,1.0,71,0.00,,,0.00,meteohub,2013-01-22 08:03:00,
2013-01-22 03:08:00,22.3,14.4,29.73,NW,315,0.0,1.0,71,0.00,,,0.00,meteohub,2013-01-22 08:08:00,
2013-01-22 03:13:00,21.7,13.8,29.73,NW,315,0.0,1.0,71,0.00,,,0.00,meteohub,2013-01-22 08:13:00,
2013-01-22 03:18:00,21.2,13.3,29.73,NW,315,0.0,1.0,71,0.00,,,0.00,meteohub,2013-01-22 08:18:00,
2013-01-22 03:24:00,20.8,13.3,29.73,NW,315,0.0,0.0,72,0.00,,,0.00,meteohub,2013-01-22 08:24:00,
2013-01-22 03:29:00,20.5,12.9,29.73,NW,315,0.0,0.0,72,0.00,,,0.00,meteohub,2013-01-22 08:29:00,
2013-01-22 03:34:00,20.3,12.7,29.73,NW,315,0.0,0.0,72,0.00,,,0.00,meteohub,2013-01-22 08:34:00,
2013-01-22 03:39:00,19.9,12.4,29.73,NW,315,0.0,0.0,72,0.00,,,0.00,meteohub,2013-01-22 08:39:00,
2013-01-22 03:44:00,19.8,12.2,29.73,NW,315,0.0,0.0,72,0.00,,,0.00,meteohub,2013-01-22 08:44:00,
2013-01-22 03:49:00,19.6,12.0,29.73,NW,315,0.0,0.0,72,0.00,,,0.00,meteohub,2013-01-22 08:49:00,
2013-01-22 03:54:00,19.4,11.8,29.73,NW,315,0.0,0.0,72,0.00,,,0.00,meteohub,2013-01-22 08:54:00,
2013-01-22 03:59:00,19.0,10.2,29.73,NW,315,0.0,0.0,68,0.00,,,0.00,meteohub,2013-01-22 08:59:00,
2013-01-22 04:04:00,19.0,10.2,29.73,NW,315,0.0,0.0,68,0.00,,,0.00,meteohub,2013-01-22 09:04:00,
2013-01-22 04:09:00,18.9,10.0,29.73,NW,315,0.0,0.0,68,0.00,,,0.00,meteohub,2013-01-22 09:09:00,
2013-01-22 04:14:00,18.9,10.4,29.73,NW,315,0.0,0.0,69,0.00,,,0.00,meteohub,2013-01-22 09:14:00,
2013-01-22 04:19:00,18.9,10.4,29.73,NW,315,0.0,0.0,69,0.00,,,0.00,meteohub,2013-01-22 09:19:00,
2013-01-22 04:25:00,18.9,10.4,29.73,North,0,0.0,0.0,69,0.00,,,0.00,meteohub,2013-01-22 09:25:00,
2013-01-22 04:30:00,18.9,10.4,29.73,North,0,0.0,1.0,69,0.00,,,0.00,meteohub,2013-01-22 09:30:00,
2013-01-22 04:35:00,18.9,10.8,29.74,North,0,0.0,1.0,70,0.00,,,0.00,meteohub,2013-01-22 09:35:00,
2013-01-22 04:40:00,18.9,10.8,29.73,North,0,0.0,1.0,70,0.00,,,0.00,meteohub,2013-01-22 09:40:00,
2013-01-22 04:45:00,18.9,10.8,29.73,North,0,0.0,0.0,70,0.00,,,0.00,meteohub,2013-01-22 09:45:00,
2013-01-22 04:50:00,18.9,10.8,29.74,North,0,0.0,0.0,70,0.00,,,0.00,meteohub,2013-01-22 09:50:00,
2013-01-22 04:55:00,19.0,10.9,29.73,North,0,0.0,0.0,70,0.00,,,0.00,meteohub,2013-01-22 09:55:00,
2013-01-22 05:00:00,19.0,10.9,29.74,North,0,0.0,0.0,70,0.00,,,0.00,meteohub,2013-01-22 10:00:00,
2013-01-22 05:05:00,19.2,11.1,29.74,North,0,0.0,0.0,70,0.00,,,0.00,meteohub,2013-01-22 10:05:00,
2013-01-22 05:10:00,19.2,11.3,29.74,North,0,0.0,0.0,71,0.00,,,0.00,meteohub,2013-01-22 10:10:00,
2013-01-22 05:16:00,19.4,12.7,29.73,North,0,0.0,0.0,75,0.00,,,0.00,meteohub,2013-01-22 10:16:00,
2013-01-22 05:21:00,19.8,13.1,29.74,East,90,0.0,0.0,75,0.00,,,0.00,meteohub,2013-01-22 10:21:00,
2013-01-22 05:26:00,20.1,13.5,29.74,North,0,0.0,1.0,75,0.00,,,0.00,meteohub,2013-01-22 10:26:00,
2013-01-22 05:31:00,20.1,13.8,29.75,West,270,0.0,2.0,76,0.00,,,0.00,meteohub,2013-01-22 10:31:00,
2013-01-22 05:36:00,20.3,14.0,29.75,West,270,0.0,2.0,76,0.00,,,0.00,meteohub,2013-01-22 10:36:00,
2013-01-22 05:41:00,20.3,14.0,29.75,North,0,0.0,2.0,76,0.00,,,0.00,meteohub,2013-01-22 10:41:00,
2013-01-22 05:46:00,20.3,14.0,29.75,NW,315,0.0,0.0,76,0.00,,,0.00,meteohub,2013-01-22 10:46:00,
2013-01-22 05:51:00,20.1,13.8,29.75,North,0,0.0,0.0,76,0.00,,,0.00,meteohub,2013-01-22 10:51:00,
2013-01-22 05:56:00,19.9,13.6,29.75,North,0,0.0,0.0,76,0.00,,,0.00,meteohub,2013-01-22 10:56:00,
2013-01-22 06:01:00,19.8,13.5,29.75,North,0,0.0,1.0,76,0.00,,,0.00,meteohub,2013-01-22 11:01:00,
2013-01-22 06:06:00,19.6,12.9,29.75,North,0,0.0,1.0,75,0.00,,,0.00,meteohub,2013-01-22 11:06:00,
2013-01-22 06:12:00,19.4,12.7,29.75,North,0,0.0,0.0,75,0.00,,,0.00,meteohub,2013-01-22 11:12:00,
2013-01-22 06:17:00,19.0,11.1,29.76,North,0,0.0,0.0,71,0.00,,,0.00,meteohub,2013-01-22 11:17:00,
2013-01-22 06:22:00,19.0,11.1,29.76,North,0,0.0,1.0,71,0.00,,,0.00,meteohub,2013-01-22 11:22:00,
2013-01-22 06:27:00,18.9,10.9,29.77,NW,315,1.0,1.0,71,0.00,,,0.00,meteohub,2013-01-22 11:27:00,
2013-01-22 06:32:00,18.7,10.8,29.76,SE,135,0.0,2.0,71,0.00,,,0.00,meteohub,2013-01-22 11:32:00,
2013-01-22 06:37:00,18.5,10.8,29.77,North,0,0.0,2.0,71,0.00,,,0.00,meteohub,2013-01-22 11:37:00,
2013-01-22 06:42:00,18.5,10.8,29.76,North,0,0.0,2.0,71,0.00,,,0.00,meteohub,2013-01-22 11:42:00,
2013-01-22 06:47:00,18.3,10.2,29.76,NE,45,0.0,1.0,70,0.00,,,0.00,meteohub,2013-01-22 11:47:00,
2013-01-22 06:52:00,18.1,10.0,29.77,North,0,1.0,1.0,70,0.00,,,0.00,meteohub,2013-01-22 11:52:00,
2013-01-22 06:58:00,18.3,10.2,29.77,NE,45,1.0,1.0,70,0.00,,,0.00,meteohub,2013-01-22 11:58:00,
2013-01-22 07:03:00,18.5,10.4,29.78,NE,45,2.0,2.0,70,0.00,,,0.00,meteohub,2013-01-22 12:03:00,
2013-01-22 07:08:00,18.7,10.6,29.78,North,0,2.0,3.0,70,0.00,,,0.00,meteohub,2013-01-22 12:08:00,
2013-01-22 07:14:00,18.7,10.6,29.78,NE,45,0.0,3.0,70,0.00,,,0.00,meteohub,2013-01-22 12:14:00,
2013-01-22 07:19:00,18.7,10.2,29.78,NW,315,2.0,3.0,69,0.00,,,0.00,meteohub,2013-01-22 12:19:00,
2013-01-22 07:24:00,18.9,10.4,29.78,NE,45,1.0,2.0,69,0.00,,,0.00,meteohub,2013-01-22 12:24:00,
2013-01-22 07:29:00,18.9,10.4,29.78,NE,45,1.0,2.0,69,0.00,,,0.00,meteohub,2013-01-22 12:29:00,
2013-01-22 07:34:00,19.0,10.2,29.78,SE,135,1.0,2.0,68,0.00,,,0.00,meteohub,2013-01-22 12:34:00,
2013-01-22 07:39:00,19.0,10.2,29.78,East,90,1.0,2.0,68,0.00,,,0.00,meteohub,2013-01-22 12:39:00,
2013-01-22 07:44:00,19.2,10.0,29.79,North,0,2.0,2.0,67,0.00,,,0.00,meteohub,2013-01-22 12:44:00,
2013-01-22 07:49:00,19.4,10.9,29.79,NE,45,2.0,2.0,69,0.00,,,0.00,meteohub,2013-01-22 12:49:00,
2013-01-22 07:55:00,19.4,10.6,29.80,NW,315,1.0,2.0,68,0.00,,,0.00,meteohub,2013-01-22 12:55:00,
2013-01-22 08:00:00,19.6,10.4,29.79,NE,45,2.0,3.0,67,0.00,,,0.00,meteohub,2013-01-22 13:00:00,
2013-01-22 08:05:00,19.6,10.0,29.79,NNE,23,2.0,4.0,66,0.00,,,0.00,meteohub,2013-01-22 13:05:00,
2013-01-22 08:10:00,19.8,9.9,29.81,NE,45,1.0,4.0,65,0.00,,,0.00,meteohub,2013-01-22 13:10:00,
2013-01-22 08:16:00,20.1,10.2,29.80,NE,45,2.0,4.0,65,0.00,,,0.00,meteohub,2013-01-22 13:16:00,
2013-01-22 08:21:00,20.5,10.2,29.80,South,180,4.0,4.0,64,0.00,,,0.00,meteohub,2013-01-22 13:21:00,
2013-01-22 08:26:00,21.2,10.2,29.81,North,0,1.0,4.0,62,0.00,,,0.00,meteohub,2013-01-22 13:26:00,
2013-01-22 08:32:00,22.5,11.1,29.81,WNW,293,1.0,4.0,61,0.00,,,0.00,meteohub,2013-01-22 13:32:00,
2013-01-22 08:37:00,22.8,10.2,29.81,NW,315,4.0,4.0,58,0.00,,,0.00,meteohub,2013-01-22 13:37:00,
2013-01-22 08:42:00,23.2,9.9,29.81,NW,315,0.0,4.0,56,0.00,,,0.00,meteohub,2013-01-22 13:42:00,
2013-01-22 08:47:00,23.4,9.1,29.81,North,0,2.0,4.0,54,0.00,,,0.00,meteohub,2013-01-22 13:47:00,
2013-01-22 08:52:00,23.5,9.0,29.82,NE,45,1.0,4.0,53,0.00,,,0.00,meteohub,2013-01-22 13:52:00,
2013-01-22 08:57:00,25.3,10.2,29.81,East,90,3.0,3.0,52,0.00,,,0.00,meteohub,2013-01-22 13:57:00,
2013-01-22 09:02:00,25.5,9.9,29.82,North,0,2.0,3.0,51,0.00,,,0.00,meteohub,2013-01-22 14:02:00,
2013-01-22 09:07:00,26.2,10.2,29.82,NW,315,3.0,4.0,50,0.00,,,0.00,meteohub,2013-01-22 14:07:00,
2013-01-22 09:13:00,27.7,10.0,29.82,West,270,2.0,4.0,47,0.00,,,0.00,meteohub,2013-01-22 14:13:00,
2013-01-22 09:18:00,28.8,11.1,29.82,NE,45,2.0,5.0,47,0.00,,,0.00,meteohub,2013-01-22 14:18:00,
2013-01-22 09:23:00,29.7,10.9,29.82,ENE,68,2.0,5.0,45,0.00,,,0.00,meteohub,2013-01-22 14:23:00,
2013-01-22 09:28:00,30.0,10.8,29.82,NW,315,1.0,3.0,44,0.00,,,0.00,meteohub,2013-01-22 14:28:00,
2013-01-22 09:33:00,32.0,11.5,29.83,WNW,293,5.0,5.0,42,0.00,,,0.00,meteohub,2013-01-22 14:33:00,
2013-01-22 09:38:00,29.7,9.3,29.83,North,0,2.0,5.0,42,0.00,,,0.00,meteohub,2013-01-22 14:38:00,
2013-01-22 09:43:00,29.8,9.5,29.83,SE,135,3.0,8.0,42,0.00,,,0.00,meteohub,2013-01-22 14:43:00,
2013-01-22 09:49:00,30.2,9.3,29.84,NW,315,2.0,8.0,41,0.00,,,0.00,meteohub,2013-01-22 14:49:00,
2013-01-22 09:54:00,30.6,9.7,29.83,NE,45,2.0,8.0,41,0.00,,,0.00,meteohub,2013-01-22 14:54:00,
2013-01-22 09:59:00,31.3,10.2,29.84,North,0,2.0,3.0,41,0.00,,,0.00,meteohub,2013-01-22 14:59:00,
2013-01-22 10:04:00,30.9,9.5,29.84,East,90,2.0,3.0,40,0.00,,,0.00,meteohub,2013-01-22 15:04:00,
2013-01-22 10:09:00,29.8,7.9,29.84,NW,315,4.0,4.0,39,0.00,,,0.00,meteohub,2013-01-22 15:09:00,
2013-01-22 10:14:00,28.9,7.2,29.83,NE,45,2.0,2.0,39,0.00,,,0.00,meteohub,2013-01-22 15:14:00,
2013-01-22 10:19:00,28.4,7.2,29.84,North,0,1.0,4.0,40,0.00,,,0.00,meteohub,2013-01-22 15:19:00,
2013-01-22 10:25:00,27.7,4.8,29.84,East,90,2.0,4.0,37,0.00,,,0.00,meteohub,2013-01-22 15:25:00,
2013-01-22 10:30:00,28.4,8.2,29.84,SE,135,2.0,7.0,42,0.00,,,0.00,meteohub,2013-01-22 15:30:00,
2013-01-22 10:35:00,29.3,8.6,29.84,NE,45,4.0,7.0,41,0.00,,,0.00,meteohub,2013-01-22 15:35:00,
2013-01-22 10:40:00,30.0,9.1,29.84,NW,315,1.0,7.0,41,0.00,,,0.00,meteohub,2013-01-22 15:40:00,
2013-01-22 10:46:00,31.5,8.2,29.84,East,90,5.0,7.0,37,0.00,,,0.00,meteohub,2013-01-22 15:46:00,
2013-01-22 10:51:00,30.6,5.5,29.84,NW,315,3.0,7.0,34,0.00,,,0.00,meteohub,2013-01-22 15:51:00,
2013-01-22 10:56:00,30.4,5.4,29.83,East,90,2.0,5.0,34,0.00,,,0.00,meteohub,2013-01-22 15:56:00,
2013-01-22 11:01:00,31.3,6.1,29.83,North,0,2.0,5.0,34,0.00,,,0.00,meteohub,2013-01-22 16:01:00,
2013-01-22 11:06:00,32.0,5.5,29.83,SE,135,2.0,5.0,32,0.00,,,0.00,meteohub,2013-01-22 16:06:00,
2013-01-22 11:12:00,31.5,5.7,29.83,East,90,2.0,5.0,33,0.00,,,0.00,meteohub,2013-01-22 16:12:00,
2013-01-22 11:17:00,28.9,3.4,29.83,ESE,113,2.0,4.0,33,0.00,,,0.00,meteohub,2013-01-22 16:17:00,
2013-01-22 11:22:00,28.0,0.7,29.83,North,0,2.0,4.0,30,0.00,,,0.00,meteohub,2013-01-22 16:22:00,
2013-01-22 11:27:00,27.0,0.3,29.84,North,0,2.0,4.0,31,0.00,,,0.00,meteohub,2013-01-22 16:27:00,
2013-01-22 11:32:00,28.9,5.9,29.83,SE,135,3.0,3.0,37,0.00,,,0.00,meteohub,2013-01-22 16:32:00,
2013-01-22 11:37:00,30.6,6.1,29.83,West,270,2.0,3.0,35,0.00,,,0.00,meteohub,2013-01-22 16:37:00,
2013-01-22 11:43:00,32.5,7.9,29.83,NW,315,2.0,3.0,35,0.00,,,0.00,meteohub,2013-01-22 16:43:00,
2013-01-22 11:48:00,34.3,6.8,29.83,South,180,4.0,4.0,31,0.00,,,0.00,meteohub,2013-01-22 16:48:00,
2013-01-22 11:53:00,34.5,6.3,29.83,WNW,293,1.0,4.0,30,0.00,,,0.00,meteohub,2013-01-22 16:53:00,
2013-01-22 11:58:00,33.8,3.4,29.83,North,0,3.0,7.0,27,0.00,,,0.00,meteohub,2013-01-22 16:58:00,
2013-01-22 12:03:00,32.7,3.2,29.83,South,180,2.0,7.0,28,0.00,,,0.00,meteohub,2013-01-22 17:03:00,
2013-01-22 12:09:00,33.8,3.4,29.82,NW,315,2.0,7.0,27,0.00,,,0.00,meteohub,2013-01-22 17:09:00,
2013-01-22 12:14:00,34.5,3.9,29.82,NE,45,2.0,7.0,27,0.00,,,0.00,meteohub,2013-01-22 17:14:00,
2013-01-22 12:19:00,35.4,3.9,29.82,NE,45,3.0,4.0,26,0.00,,,0.00,meteohub,2013-01-22 17:19:00,
2013-01-22 12:24:00,32.2,1.2,29.82,SE,135,2.0,4.0,26,0.00,,,0.00,meteohub,2013-01-22 17:24:00,
2013-01-22 12:30:00,30.7,0.7,29.82,East,90,2.0,3.0,27,0.00,,,0.00,meteohub,2013-01-22 17:30:00,
2013-01-22 12:35:00,28.8,-0.2,29.83,North,0,2.0,6.0,28,0.00,,,0.00,meteohub,2013-01-22 17:35:00,
2013-01-22 12:40:00,27.9,-4.4,29.82,North,0,2.0,6.0,24,0.00,,,0.00,meteohub,2013-01-22 17:40:00,
2013-01-22 12:45:00,27.5,-3.6,29.82,NW,315,1.0,4.0,25,0.00,,,0.00,meteohub,2013-01-22 17:45:00,
2013-01-22 12:51:00,31.3,2.7,29.82,North,0,2.0,4.0,29,0.00,,,0.00,meteohub,2013-01-22 17:51:00,
2013-01-22 12:56:00,32.4,1.2,29.82,NW,315,3.0,5.0,26,0.00,,,0.00,meteohub,2013-01-22 17:56:00,
2013-01-22 13:02:00,32.2,1.2,29.82,North,0,2.0,5.0,26,0.00,,,0.00,meteohub,2013-01-22 18:02:00,
2013-01-22 13:07:00,33.6,2.3,29.82,NW,315,2.0,5.0,26,0.00,,,0.00,meteohub,2013-01-22 18:07:00,
2013-01-22 13:12:00,34.7,2.5,29.83,North,0,2.0,4.0,25,0.00,,,0.00,meteohub,2013-01-22 18:12:00,
2013-01-22 13:17:00,35.1,1.9,29.83,North,0,3.0,4.0,24,0.00,,,0.00,meteohub,2013-01-22 18:17:00,
2013-01-22 13:22:00,34.5,1.4,29.83,WNW,293,3.0,4.0,24,0.00,,,0.00,meteohub,2013-01-22 18:22:00,
2013-01-22 13:27:00,30.9,-0.8,29.83,NE,45,4.0,4.0,25,0.00,,,0.00,meteohub,2013-01-22 18:27:00,
2013-01-22 13:33:00,28.6,-1.1,29.83,North,0,4.0,4.0,27,0.00,,,0.00,meteohub,2013-01-22 18:33:00,
2013-01-22 13:38:00,27.7,-5.3,29.83,SE,135,2.0,4.0,23,0.00,,,0.00,meteohub,2013-01-22 18:38:00,
2013-01-22 13:43:00,31.1,1.0,29.83,NW,315,2.0,4.0,27,0.00,,,0.00,meteohub,2013-01-22 18:43:00,
2013-01-22 13:48:00,32.2,0.3,29.83,North,0,2.0,4.0,25,0.00,,,0.00,meteohub,2013-01-22 18:48:00,
2013-01-22 13:53:00,30.6,-0.2,29.83,NW,315,2.0,4.0,26,0.00,,,0.00,meteohub,2013-01-22 18:53:00,
2013-01-22 13:59:00,30.4,-0.4,29.84,NE,45,2.0,6.0,26,0.00,,,0.00,meteohub,2013-01-22 18:59:00,
2013-01-22 14:04:00,30.4,-0.4,29.85,SE,135,4.0,6.0,26,0.00,,,0.00,meteohub,2013-01-22 19:04:00,
2013-01-22 14:09:00,29.7,-1.1,29.85,NW,315,3.0,4.0,26,0.00,,,0.00,meteohub,2013-01-22 19:09:00,
2013-01-22 14:15:00,29.5,-0.4,29.85,SE,135,2.0,5.0,27,0.00,,,0.00,meteohub,2013-01-22 19:15:00,
2013-01-22 14:20:00,30.4,-0.4,29.85,NW,315,3.0,5.0,26,0.00,,,0.00,meteohub,2013-01-22 19:20:00,
2013-01-22 14:25:00,28.6,-2.0,29.85,NW,315,2.0,5.0,26,0.00,,,0.00,meteohub,2013-01-22 19:25:00,
2013-01-22 14:30:00,27.3,-6.5,29.85,North,0,4.0,6.0,22,0.00,,,0.00,meteohub,2013-01-22 19:30:00,
2013-01-22 14:35:00,25.7,-7.1,29.86,North,0,4.0,5.0,23,0.00,,,0.00,meteohub,2013-01-22 19:35:00,
2013-01-22 14:40:00,25.9,-6.0,29.86,NW,315,2.0,4.0,24,0.00,,,0.00,meteohub,2013-01-22 19:40:00,
2013-01-22 14:45:00,27.3,-5.6,29.86,East,90,3.0,4.0,23,0.00,,,0.00,meteohub,2013-01-22 19:45:00,
2013-01-22 14:51:00,28.6,-1.1,29.86,North,0,3.0,5.0,27,0.00,,,0.00,meteohub,2013-01-22 19:51:00,
2013-01-22 14:56:00,28.6,-1.1,29.86,NE,45,2.0,5.0,27,0.00,,,0.00,meteohub,2013-01-22 19:56:00,
2013-01-22 15:01:00,28.2,-4.9,29.85,East,90,2.0,4.0,23,0.00,,,0.00,meteohub,2013-01-22 20:01:00,
2013-01-22 15:07:00,27.1,-5.8,29.86,NW,315,3.0,3.0,23,0.00,,,0.00,meteohub,2013-01-22 20:07:00,
2013-01-22 15:12:00,25.7,-6.2,29.86,East,90,1.0,4.0,24,0.00,,,0.00,meteohub,2013-01-22 20:12:00,
2013-01-22 15:17:00,24.6,-6.2,29.86,SE,135,3.0,4.0,25,0.00,,,0.00,meteohub,2013-01-22 20:17:00,
2013-01-22 15:22:00,24.8,-6.9,29.87,NE,45,2.0,4.0,24,0.00,,,0.00,meteohub,2013-01-22 20:22:00,
2013-01-22 15:27:00,24.4,-6.3,29.88,NE,45,2.0,4.0,25,0.00,,,0.00,meteohub,2013-01-22 20:27:00,
2013-01-22 15:32:00,23.5,-6.3,29.88,NW,315,1.0,6.0,26,0.00,,,0.00,meteohub,2013-01-22 20:32:00,
2013-01-22 15:37:00,23.2,-6.7,29.88,North,0,3.0,6.0,26,0.00,,,0.00,meteohub,2013-01-22 20:37:00,
2013-01-22 15:42:00,23.0,-6.9,29.88,East,90,1.0,6.0,26,0.00,,,0.00,meteohub,2013-01-22 20:42:00,
2013-01-22 15:47:00,23.0,-6.9,29.89,North,0,2.0,3.0,26,0.00,,,0.00,meteohub,2013-01-22 20:47:00,
2013-01-22 15:52:00,23.0,-6.9,29.89,North,0,2.0,3.0,26,0.00,,,0.00,meteohub,2013-01-22 20:52:00,
2013-01-22 15:58:00,22.6,-6.3,29.89,NE,45,3.0,3.0,27,0.00,,,0.00,meteohub,2013-01-22 20:58:00,
2013-01-22 16:03:00,22.1,-6.9,29.89,NW,315,2.0,4.0,27,0.00,,,0.00,meteohub,2013-01-22 21:03:00,
2013-01-22 16:08:00,21.9,-6.9,29.90,NW,315,3.0,4.0,27,0.00,,,0.00,meteohub,2013-01-22 21:08:00,
2013-01-22 16:13:00,21.6,-7.2,29.89,NNW,338,2.0,7.0,27,0.00,,,0.00,meteohub,2013-01-22 21:13:00,
2013-01-22 16:18:00,21.2,-7.6,29.91,West,270,2.0,7.0,27,0.00,,,0.00,meteohub,2013-01-22 21:18:00,
2013-01-22 16:23:00,20.8,-7.1,29.90,North,0,2.0,7.0,28,0.00,,,0.00,meteohub,2013-01-22 21:23:00,
2013-01-22 16:28:00,20.7,-6.5,29.90,East,90,2.0,2.0,29,0.00,,,0.00,meteohub,2013-01-22 21:28:00,
2013-01-22 16:32:00,20.5,-6.7,29.91,East,90,4.0,4.0,29,0.00,,,0.00,meteohub,2013-01-22 21:32:00,
2013-01-22 16:37:00,20.3,-7.6,29.91,East,90,1.0,4.0,28,0.00,,,0.00,meteohub,2013-01-22 21:37:00,
2013-01-22 16:42:00,20.1,-7.1,29.91,NW,315,4.0,4.0,29,0.00,,,0.00,meteohub,2013-01-22 21:42:00,
2013-01-22 16:47:00,19.9,-7.2,29.92,NE,45,1.0,6.0,29,0.00,,,0.00,meteohub,2013-01-22 21:47:00,
2013-01-22 16:52:00,19.6,-7.6,29.92,East,90,2.0,6.0,29,0.00,,,0.00,meteohub,2013-01-22 21:52:00,
2013-01-22 16:57:00,19.4,-7.6,29.92,North,0,2.0,6.0,29,0.00,,,0.00,meteohub,2013-01-22 21:57:00,
2013-01-22 17:03:00,19.2,-10.8,29.92,North,0,2.0,2.0,25,0.00,,,0.00,meteohub,2013-01-22 22:03:00,
2013-01-22 17:08:00,19.0,-10.3,29.93,South,180,2.0,2.0,26,0.00,,,0.00,meteohub,2013-01-22 22:08:00,
2013-01-22 17:13:00,19.0,-10.3,29.93,NE,45,2.0,2.0,26,0.00,,,0.00,meteohub,2013-01-22 22:13:00,
2013-01-22 17:18:00,18.9,-10.3,29.93,NE,45,1.0,4.0,26,0.00,,,0.00,meteohub,2013-01-22 22:18:00,
2013-01-22 17:24:00,18.9,-10.3,29.94,West,270,1.0,4.0,26,0.00,,,0.00,meteohub,2013-01-22 22:24:00,
2013-01-22 17:29:00,18.7,-10.5,29.94,East,90,0.0,4.0,26,0.00,,,0.00,meteohub,2013-01-22 22:29:00,
2013-01-22 17:34:00,18.5,-10.7,29.95,West,270,1.0,3.0,26,0.00,,,0.00,meteohub,2013-01-22 22:34:00,
2013-01-22 17:39:00,18.3,-10.8,29.95,North,0,1.0,7.0,26,0.00,,,0.00,meteohub,2013-01-22 22:39:00,
2013-01-22 17:45:00,18.1,-10.3,29.95,North,0,2.0,7.0,27,0.00,,,0.00,meteohub,2013-01-22 22:45:00,
2013-01-22 17:50:00,18.1,-10.3,29.95,North,0,1.0,7.0,27,0.00,,,0.00,meteohub,2013-01-22 22:50:00,
2013-01-22 17:55:00,18.0,-10.5,29.96,NW,315,2.0,3.0,27,0.00,,,0.00,meteohub,2013-01-22 22:55:00,
2013-01-22 18:00:00,18.0,-9.6,29.96,NE,45,2.0,3.0,28,0.00,,,0.00,meteohub,2013-01-22 23:00:00,
2013-01-22 18:06:00,17.8,-9.8,29.96,NW,315,2.0,3.0,28,0.00,,,0.00,meteohub,2013-01-22 23:06:00,
2013-01-22 18:11:00,17.6,-9.9,29.97,NE,45,2.0,2.0,28,0.00,,,0.00,meteohub,2013-01-22 23:11:00,
2013-01-22 18:16:00,17.6,-9.9,29.97,NE,45,2.0,2.0,28,0.00,,,0.00,meteohub,2013-01-22 23:16:00,
2013-01-22 18:22:00,17.6,-9.2,29.98,East,90,2.0,5.0,29,0.00,,,0.00,meteohub,2013-01-22 23:22:00,
2013-01-22 18:27:00,17.6,-9.2,29.97,NW,315,4.0,5.0,29,0.00,,,0.00,meteohub,2013-01-22 23:27:00,
2013-01-22 18:32:00,17.4,-8.7,29.98,NW,315,4.0,4.0,30,0.00,,,0.00,meteohub,2013-01-22 23:32:00,
2013-01-22 18:37:00,17.4,-8.7,29.99,NE,45,2.0,7.0,30,0.00,,,0.00,meteohub,2013-01-22 23:37:00,
2013-01-22 18:42:00,17.2,-8.9,29.99,NE,45,2.0,7.0,30,0.00,,,0.00,meteohub,2013-01-22 23:42:00,
2013-01-22 18:48:00,17.1,-9.0,29.99,North,0,2.0,7.0,30,0.00,,,0.00,meteohub,2013-01-22 23:48:00,
2013-01-22 18:53:00,17.1,-9.0,29.99,East,90,4.0,5.0,30,0.00,,,0.00,meteohub,2013-01-22 23:53:00,
2013-01-22 18:58:00,16.9,-9.2,29.99,NE,45,4.0,5.0,30,0.00,,,0.00,meteohub,2013-01-22 23:58:00,
2013-01-22 19:03:00,16.9,-9.2,29.99,SE,135,2.0,5.0,30,0.00,,,0.00,meteohub,2013-01-23 00:03:00,
2013-01-22 19:08:00,16.7,-9.4,29.99,NE,45,2.0,4.0,30,0.00,,,0.00,meteohub,2013-01-23 00:08:00,
2013-01-22 19:13:00,16.5,-9.6,29.99,NE,45,2.0,4.0,30,0.00,,,0.00,meteohub,2013-01-23 00:13:00,
2013-01-22 19:19:00,16.5,-9.6,29.99,NE,45,3.0,4.0,30,0.00,,,0.00,meteohub,2013-01-23 00:19:00,
2013-01-22 19:24:00,16.3,-9.8,30.00,North,0,1.0,3.0,30,0.00,,,0.00,meteohub,2013-01-23 00:24:00,
2013-01-22 19:29:00,16.2,-9.8,30.00,East,90,2.0,3.0,30,0.00,,,0.00,meteohub,2013-01-23 00:29:00,
2013-01-22 19:34:00,16.2,-9.8,30.00,WNW,293,4.0,4.0,30,0.00,,,0.00,meteohub,2013-01-23 00:34:00,
2013-01-22 19:39:00,16.2,-9.2,30.00,North,0,1.0,3.0,31,0.00,,,0.00,meteohub,2013-01-23 00:39:00,
2013-01-22 19:45:00,16.0,-9.4,30.00,North,0,2.0,4.0,31,0.00,,,0.00,meteohub,2013-01-23 00:45:00,
2013-01-22 19:50:00,16.0,-9.4,30.00,NW,315,2.0,4.0,31,0.00,,,0.00,meteohub,2013-01-23 00:50:00,
2013-01-22 19:55:00,15.8,-9.6,30.00,North,0,2.0,3.0,31,0.00,,,0.00,meteohub,2013-01-23 00:55:00,
2013-01-22 20:00:00,15.8,-9.6,30.01,NE,45,1.0,4.0,31,0.00,,,0.00,meteohub,2013-01-23 01:00:00,
2013-01-22 20:05:00,15.8,-9.6,30.00,NE,45,2.0,4.0,31,0.00,,,0.00,meteohub,2013-01-23 01:05:00,
2013-01-22 20:11:00,15.6,-9.0,30.01,North,0,2.0,4.0,32,0.00,,,0.00,meteohub,2013-01-23 01:11:00,
2013-01-22 20:16:00,15.6,-9.0,30.01,NE,45,2.0,4.0,32,0.00,,,0.00,meteohub,2013-01-23 01:16:00,
2013-01-22 20:22:00,15.4,-9.2,30.01,North,0,1.0,2.0,32,0.00,,,0.00,meteohub,2013-01-23 01:22:00,
2013-01-22 20:27:00,15.4,-9.2,30.01,NE,45,1.0,2.0,32,0.00,,,0.00,meteohub,2013-01-23 01:27:00,
2013-01-22 20:32:00,15.4,-9.2,30.01,North,0,0.0,2.0,32,0.00,,,0.00,meteohub,2013-01-23 01:32:00,
2013-01-22 20:37:00,15.3,-8.7,30.02,North,0,1.0,2.0,33,0.00,,,0.00,meteohub,2013-01-23 01:37:00,
2013-01-22 20:42:00,15.1,-8.9,30.02,North,0,1.0,2.0,33,0.00,,,0.00,meteohub,2013-01-23 01:42:00,
2013-01-22 20:48:00,15.1,-8.9,30.02,NW,315,2.0,2.0,33,0.00,,,0.00,meteohub,2013-01-23 01:48:00,
2013-01-22 20:53:00,15.1,-8.9,30.01,North,0,2.0,3.0,33,0.00,,,0.00,meteohub,2013-01-23 01:53:00,
2013-01-22 20:58:00,14.9,-8.5,30.02,NE,45,0.0,3.0,34,0.00,,,0.00,meteohub,2013-01-23 01:58:00,
2013-01-22 21:04:00,14.9,-8.5,30.02,North,0,2.0,3.0,34,0.00,,,0.00,meteohub,2013-01-23 02:04:00,
2013-01-22 21:09:00,14.7,-8.5,30.02,North,0,0.0,2.0,34,0.00,,,0.00,meteohub,2013-01-23 02:09:00,
2013-01-22 21:14:00,14.5,-9.4,30.02,NW,315,0.0,2.0,33,0.00,,,0.00,meteohub,2013-01-23 02:14:00,
2013-01-22 21:20:00,14.5,-8.7,30.02,East,90,0.0,3.0,34,0.00,,,0.00,meteohub,2013-01-23 02:20:00,
2013-01-22 21:25:00,14.5,-8.1,30.02,NW,315,2.0,3.0,35,0.00,,,0.00,meteohub,2013-01-23 02:25:00,
2013-01-22 21:30:00,14.5,-8.1,30.02,NE,45,1.0,4.0,35,0.00,,,0.00,meteohub,2013-01-23 02:30:00,
2013-01-22 21:36:00,14.5,-8.1,30.02,North,0,2.0,4.0,35,0.00,,,0.00,meteohub,2013-01-23 02:36:00,
2013-01-22 21:41:00,14.4,-8.3,30.03,North,0,1.0,4.0,35,0.00,,,0.00,meteohub,2013-01-23 02:41:00,
2013-01-22 21:46:00,14.2,-8.5,30.03,ENE,68,2.0,3.0,35,0.00,,,0.00,meteohub,2013-01-23 02:46:00,
2013-01-22 21:52:00,14.2,-8.5,30.04,NE,45,2.0,3.0,35,0.00,,,0.00,meteohub,2013-01-23 02:52:00,
2013-01-22 21:57:00,14.0,-8.0,30.03,North,0,1.0,3.0,36,0.00,,,0.00,meteohub,2013-01-23 02:57:00,
2013-01-22 22:02:00,13.8,-7.6,30.04,North,0,1.0,2.0,37,0.00,,,0.00,meteohub,2013-01-23 03:02:00,
2013-01-22 22:07:00,13.8,-7.1,30.04,NW,315,1.0,2.0,38,0.00,,,0.00,meteohub,2013-01-23 03:07:00,
2013-01-22 22:12:00,13.6,-7.2,30.04,North,0,1.0,3.0,38,0.00,,,0.00,meteohub,2013-01-23 03:12:00,
2013-01-22 22:17:00,13.6,-6.7,30.04,NE,45,0.0,3.0,39,0.00,,,0.00,meteohub,2013-01-23 03:17:00,
2013-01-22 22:23:00,13.5,-6.9,30.04,NE,45,1.0,2.0,39,0.00,,,0.00,meteohub,2013-01-23 03:23:00,
2013-01-22 22:28:00,13.5,-6.3,30.05,NW,315,2.0,2.0,40,0.00,,,0.00,meteohub,2013-01-23 03:28:00,
2013-01-22 22:33:00,13.3,-6.0,30.05,North,0,0.0,2.0,41,0.00,,,0.00,meteohub,2013-01-23 03:33:00,
2013-01-22 22:38:00,13.1,-6.2,30.05,North,0,1.0,2.0,41,0.00,,,0.00,meteohub,2013-01-23 03:38:00,
2013-01-22 22:43:00,13.1,-6.2,30.05,NW,315,2.0,2.0,41,0.00,,,0.00,meteohub,2013-01-23 03:43:00,
2013-01-22 22:49:00,13.1,-6.2,30.05,North,0,0.0,2.0,41,0.00,,,0.00,meteohub,2013-01-23 03:49:00,
2013-01-22 22:54:00,12.9,-6.3,30.05,North,0,0.0,2.0,41,0.00,,,0.00,meteohub,2013-01-23 03:54:00,
2013-01-22 22:59:00,12.9,-6.3,30.05,NE,45,2.0,2.0,41,0.00,,,0.00,meteohub,2013-01-23 03:59:00,
2013-01-22 23:05:00,12.9,-6.3,30.05,NE,45,2.0,2.0,41,0.00,,,0.00,meteohub,2013-01-23 04:05:00,
2013-01-22 23:10:00,12.7,-6.5,30.05,North,0,0.0,2.0,41,0.00,,,0.00,meteohub,2013-01-23 04:10:00,
2013-01-22 23:15:00,12.7,-6.5,30.06,North,0,0.0,2.0,41,0.00,,,0.00,meteohub,2013-01-23 04:15:00,
2013-01-22 23:20:00,12.6,-6.7,30.05,North,0,1.0,2.0,41,0.00,,,0.00,meteohub,2013-01-23 04:20:00,
2013-01-22 23:25:00,12.6,-6.7,30.05,North,0,4.0,4.0,41,0.00,,,0.00,meteohub,2013-01-23 04:25:00,
2013-01-22 23:31:00,12.6,-6.7,30.06,North,0,2.0,4.0,41,0.00,,,0.00,meteohub,2013-01-23 04:31:00,
2013-01-22 23:37:00,12.6,-6.7,30.05,NW,315,1.0,4.0,41,0.00,,,0.00,meteohub,2013-01-23 04:37:00,
2013-01-22 23:42:00,12.6,-6.7,30.05,East,90,1.0,4.0,41,0.00,,,0.00,meteohub,2013-01-23 04:42:00,
2013-01-22 23:47:00,12.6,-6.7,30.05,South,180,0.0,3.0,41,0.00,,,0.00,meteohub,2013-01-23 04:47:00,
2013-01-22 23:52:00,12.4,-6.9,30.05,West,270,2.0,3.0,41,0.00,,,0.00,meteohub,2013-01-23 04:52:00,
2013-01-22 23:57:00,12.0,-6.7,30.05,West,270,2.0,2.0,42,0.00,,,0.00,meteohub,2013-01-23 04:57:00,